createdAt,value
2016-12-17T00:00:13.241Z,16.60
2016-12-17T00:01:13.021Z,16.60
2016-12-17T00:02:09.617Z,16.60
2016-12-17T00:03:08.891Z,16.60
2016-12-17T00:04:11.082Z,16.60
2016-12-17T00:05:12.462Z,16.60
2016-12-17T00:06:13.386Z,16.60
2016-12-17T00:07:12.253Z,16.60
2016-12-17T00:08:12.362Z,16.60
2016-12-17T00:09:13.188Z,16.60
2016-12-17T00:10:11.786Z,16.60
2016-12-17T00:11:11.147Z,16.60
2016-12-17T00:12:12.105Z,16.70
2016-12-17T00:13:13.198Z,16.70
2016-12-17T00:14:12.556Z,16.60
2016-12-17T00:15:12.184Z,16.70
2016-12-17T00:16:11.473Z,16.70
2016-12-17T00:17:11.933Z,16.60
2016-12-17T00:18:14.989Z,16.70
2016-12-17T00:19:12.445Z,16.70
2016-12-17T00:20:10.471Z,16.60
2016-12-17T00:21:12.750Z,16.70
2016-12-17T00:22:11.118Z,16.70
2016-12-17T00:23:12.733Z,16.60
2016-12-17T00:24:12.694Z,16.70
2016-12-17T00:25:11.971Z,16.70
2016-12-17T00:26:12.093Z,16.70
2016-12-17T00:27:12.074Z,16.70
2016-12-17T00:28:12.707Z,16.70
2016-12-17T00:29:14.577Z,16.70
2016-12-17T00:30:12.590Z,16.70
2016-12-17T00:31:12.408Z,16.70
2016-12-17T00:32:12.345Z,16.70
2016-12-17T00:33:13.106Z,16.70
2016-12-17T00:34:12.293Z,16.70
2016-12-17T00:35:10.463Z,16.70
2016-12-17T00:36:11.990Z,16.70
2016-12-17T00:37:14.379Z,16.70
2016-12-17T00:38:12.115Z,16.70
2016-12-17T00:39:13.304Z,16.70
2016-12-17T00:40:13.019Z,16.70
2016-12-17T00:41:13.129Z,16.70
2016-12-17T00:42:12.963Z,16.70
2016-12-17T00:43:09.731Z,16.70
2016-12-17T00:44:12.352Z,16.70
2016-12-17T00:45:12.644Z,16.70
2016-12-17T00:46:13.531Z,16.70
2016-12-17T00:47:10.452Z,16.70
2016-12-17T00:48:12.356Z,16.70
2016-12-17T00:49:12.127Z,16.60
2016-12-17T00:50:12.415Z,16.70
2016-12-17T00:51:14.332Z,16.70
2016-12-17T00:52:13.110Z,16.70
2016-12-17T00:53:10.252Z,16.70
2016-12-17T00:54:15.585Z,16.70
2016-12-17T00:55:13.331Z,16.70
2016-12-17T00:56:10.805Z,16.70
2016-12-17T00:57:12.326Z,16.70
2016-12-17T00:58:12.238Z,16.70
2016-12-17T00:59:08.610Z,16.70
2016-12-17T01:00:12.081Z,16.70
2016-12-17T01:01:12.378Z,16.70
2016-12-17T01:02:09.350Z,16.70
2016-12-17T01:03:13.494Z,16.70
2016-12-17T01:04:12.460Z,16.70
2016-12-17T01:05:13.058Z,16.70
2016-12-17T01:06:13.390Z,16.70
2016-12-17T01:07:13.537Z,16.70
2016-12-17T01:08:13.438Z,16.70
2016-12-17T01:09:14.189Z,16.70
2016-12-17T01:10:10.207Z,16.70
2016-12-17T01:11:11.966Z,16.70
2016-12-17T01:12:13.229Z,16.70
2016-12-17T01:13:12.882Z,16.70
2016-12-17T01:14:12.736Z,16.70
2016-12-17T01:15:11.175Z,16.70
2016-12-17T01:16:13.076Z,16.70
2016-12-17T01:17:12.999Z,16.70
2016-12-17T01:18:14.124Z,16.70
2016-12-17T01:19:12.657Z,16.70
2016-12-17T01:20:13.905Z,16.70
2016-12-17T01:21:11.302Z,16.70
2016-12-17T01:22:13.273Z,16.70
2016-12-17T01:23:12.638Z,16.70
2016-12-17T01:24:14.498Z,16.70
2016-12-17T01:25:12.303Z,16.70
2016-12-17T01:26:10.483Z,16.70
2016-12-17T01:27:12.917Z,16.70
2016-12-17T01:28:14.977Z,16.70
2016-12-17T01:29:13.067Z,16.70
2016-12-17T01:30:12.446Z,16.70
2016-12-17T01:31:13.025Z,16.70
2016-12-17T01:32:12.417Z,16.70
2016-12-17T01:33:13.692Z,16.70
2016-12-17T01:34:13.262Z,16.70
2016-12-17T01:35:13.207Z,16.70
2016-12-17T01:36:14.016Z,16.70
2016-12-17T01:37:12.091Z,16.70
2016-12-17T01:38:12.502Z,16.70
2016-12-17T01:39:13.236Z,16.70
2016-12-17T01:40:12.630Z,16.70
2016-12-17T01:41:14.547Z,16.70
2016-12-17T01:42:13.302Z,16.70
2016-12-17T01:43:12.250Z,16.70
2016-12-17T01:44:09.109Z,16.70
2016-12-17T01:45:12.370Z,16.70
2016-12-17T01:46:13.272Z,16.70
2016-12-17T01:47:11.823Z,16.70
2016-12-17T01:48:08.685Z,16.70
2016-12-17T01:49:12.310Z,16.70
2016-12-17T01:50:13.091Z,16.70
2016-12-17T01:51:12.836Z,16.70
2016-12-17T01:52:12.792Z,16.70
2016-12-17T01:53:10.943Z,16.70
2016-12-17T01:54:12.614Z,16.70
2016-12-17T01:55:14.471Z,16.70
2016-12-17T01:56:09.941Z,16.70
2016-12-17T01:57:12.925Z,16.70
2016-12-17T01:58:12.974Z,16.70
2016-12-17T01:59:11.993Z,16.70
2016-12-17T02:00:13.130Z,16.70
2016-12-17T02:01:13.927Z,16.70
2016-12-17T02:02:13.320Z,16.70
2016-12-17T02:03:14.633Z,16.70
2016-12-17T02:04:14.379Z,16.70
2016-12-17T02:05:12.157Z,16.70
2016-12-17T02:06:12.781Z,16.70
2016-12-17T02:07:09.425Z,16.70
2016-12-17T02:08:11.936Z,16.70
2016-12-17T02:09:12.962Z,16.70
2016-12-17T02:10:14.310Z,16.70
2016-12-17T02:11:12.975Z,16.70
2016-12-17T02:12:13.403Z,16.70
2016-12-17T02:13:12.965Z,16.70
2016-12-17T02:14:13.291Z,16.70
2016-12-17T02:15:12.881Z,16.70
2016-12-17T02:16:15.384Z,16.70
2016-12-17T02:17:09.453Z,16.70
2016-12-17T02:18:12.441Z,16.70
2016-12-17T02:19:13.038Z,16.70
2016-12-17T02:20:12.536Z,16.70
2016-12-17T02:21:13.458Z,16.70
2016-12-17T02:22:12.845Z,16.70
2016-12-17T02:23:09.898Z,16.70
2016-12-17T02:24:10.647Z,16.70
2016-12-17T02:25:11.774Z,16.70
2016-12-17T02:26:12.768Z,16.70
2016-12-17T02:27:12.246Z,16.70
2016-12-17T02:28:12.333Z,16.70
2016-12-17T02:29:10.205Z,16.70
2016-12-17T02:30:12.580Z,16.70
2016-12-17T02:31:15.237Z,16.70
2016-12-17T02:32:12.878Z,16.70
2016-12-17T02:33:12.803Z,16.70
2016-12-17T02:34:13.540Z,16.70
2016-12-17T02:35:09.226Z,16.70
2016-12-17T02:36:10.992Z,16.70
2016-12-17T02:37:12.227Z,16.70
2016-12-17T02:38:13.629Z,16.70
2016-12-17T02:39:12.530Z,16.70
2016-12-17T02:40:13.233Z,16.70
2016-12-17T02:41:11.924Z,16.70
2016-12-17T02:42:10.225Z,16.70
2016-12-17T02:43:13.511Z,16.70
2016-12-17T02:44:12.521Z,16.70
2016-12-17T02:45:12.440Z,16.70
2016-12-17T02:46:08.724Z,16.70
2016-12-17T02:47:11.400Z,16.70
2016-12-17T02:48:12.972Z,16.70
2016-12-17T02:49:11.477Z,16.70
2016-12-17T02:50:13.227Z,16.70
2016-12-17T02:51:15.230Z,16.70
2016-12-17T02:52:13.277Z,16.70
2016-12-17T02:53:12.232Z,16.70
2016-12-17T02:54:13.183Z,16.70
2016-12-17T02:55:12.050Z,16.70
2016-12-17T02:56:11.964Z,16.70
2016-12-17T02:57:11.507Z,16.70
2016-12-17T02:58:14.069Z,16.70
2016-12-17T02:59:11.995Z,16.70
2016-12-17T03:00:12.161Z,16.70
2016-12-17T03:01:12.455Z,16.70
2016-12-17T03:02:12.577Z,16.70
2016-12-17T03:03:12.844Z,16.70
2016-12-17T03:04:09.079Z,16.70
2016-12-17T03:05:11.804Z,16.70
2016-12-17T03:06:13.076Z,16.70
2016-12-17T03:07:08.439Z,16.70
2016-12-17T03:08:13.262Z,16.70
2016-12-17T03:09:12.837Z,16.70
2016-12-17T03:10:13.693Z,16.70
2016-12-17T03:11:13.729Z,16.70
2016-12-17T03:12:09.792Z,16.70
2016-12-17T03:13:12.538Z,16.70
2016-12-17T03:14:11.988Z,16.70
2016-12-17T03:15:11.918Z,16.70
2016-12-17T03:16:11.565Z,16.70
2016-12-17T03:17:13.266Z,16.70
2016-12-17T03:18:12.150Z,16.70
2016-12-17T03:19:12.860Z,16.70
2016-12-17T03:20:13.225Z,16.70
2016-12-17T03:21:11.973Z,16.70
2016-12-17T03:22:13.951Z,16.70
2016-12-17T03:23:11.069Z,16.70
2016-12-17T03:24:12.363Z,16.70
2016-12-17T03:25:09.558Z,16.70
2016-12-17T03:26:12.278Z,16.70
2016-12-17T03:27:12.884Z,16.70
2016-12-17T03:28:12.629Z,16.70
2016-12-17T03:29:12.626Z,16.70
2016-12-17T03:30:13.080Z,16.70
2016-12-17T03:31:12.127Z,16.70
2016-12-17T03:32:13.892Z,16.70
2016-12-17T03:33:12.900Z,16.70
2016-12-17T03:34:12.831Z,16.70
2016-12-17T03:35:12.300Z,16.70
2016-12-17T03:36:12.965Z,16.70
2016-12-17T03:37:15.475Z,16.70
2016-12-17T03:38:13.421Z,16.70
2016-12-17T03:39:14.217Z,16.70
2016-12-17T03:40:12.650Z,16.70
2016-12-17T03:41:10.007Z,16.70
2016-12-17T03:42:12.296Z,16.70
2016-12-17T03:43:12.851Z,16.70
2016-12-17T03:44:11.048Z,16.70
2016-12-17T03:45:12.507Z,16.70
2016-12-17T03:46:13.357Z,16.70
2016-12-17T03:47:12.394Z,16.70
2016-12-17T03:48:11.857Z,16.70
2016-12-17T03:49:09.746Z,16.70
2016-12-17T03:50:13.554Z,16.70
2016-12-17T03:51:12.601Z,16.70
2016-12-17T03:52:12.807Z,16.70
2016-12-17T03:53:13.000Z,16.70
2016-12-17T03:54:12.773Z,16.70
2016-12-17T03:55:13.476Z,16.70
2016-12-17T03:56:14.147Z,16.70
2016-12-17T03:57:12.771Z,16.70
2016-12-17T03:58:15.619Z,16.70
2016-12-17T03:59:12.780Z,16.70
2016-12-17T04:00:15.182Z,16.70
2016-12-17T04:01:12.895Z,16.70
2016-12-17T04:02:12.287Z,16.70
2016-12-17T04:03:12.903Z,16.70
2016-12-17T04:04:12.311Z,16.70
2016-12-17T04:05:12.971Z,16.70
2016-12-17T04:06:12.920Z,16.70
2016-12-17T04:07:13.656Z,16.70
2016-12-17T04:08:12.113Z,16.70
2016-12-17T04:09:13.884Z,16.70
2016-12-17T04:10:13.804Z,16.70
2016-12-17T04:11:13.244Z,16.70
2016-12-17T04:12:09.457Z,16.70
2016-12-17T04:13:12.134Z,16.70
2016-12-17T04:14:13.904Z,16.70
2016-12-17T04:15:13.089Z,16.70
2016-12-17T04:16:13.204Z,16.70
2016-12-17T04:17:13.649Z,16.70
2016-12-17T04:18:12.630Z,16.70
2016-12-17T04:19:12.670Z,16.70
2016-12-17T04:20:12.703Z,16.70
2016-12-17T04:21:12.909Z,16.70
2016-12-17T04:22:12.870Z,16.70
2016-12-17T04:23:10.600Z,16.70
2016-12-17T04:24:12.077Z,16.70
2016-12-17T04:25:12.526Z,16.70
2016-12-17T04:26:12.583Z,16.70
2016-12-17T04:27:13.543Z,16.70
2016-12-17T04:28:16.463Z,16.70
2016-12-17T04:29:13.286Z,16.70
2016-12-17T04:30:12.432Z,16.70
2016-12-17T04:31:12.840Z,16.70
2016-12-17T04:32:12.548Z,16.70
2016-12-17T04:33:12.836Z,16.70
2016-12-17T04:34:13.662Z,16.70
2016-12-17T04:35:12.687Z,16.70
2016-12-17T04:36:12.677Z,16.70
2016-12-17T04:37:10.756Z,16.70
2016-12-17T04:38:13.927Z,16.70
2016-12-17T04:39:10.779Z,16.70
2016-12-17T04:40:11.913Z,16.70
2016-12-17T04:41:14.515Z,16.70
2016-12-17T04:42:13.344Z,16.70
2016-12-17T04:43:11.860Z,16.70
2016-12-17T04:44:13.980Z,16.70
2016-12-17T04:45:11.702Z,16.70
2016-12-17T04:46:12.886Z,16.70
2016-12-17T04:47:12.939Z,16.70
2016-12-17T04:48:12.657Z,16.70
2016-12-17T04:49:12.091Z,16.70
2016-12-17T04:50:12.071Z,16.70
2016-12-17T04:51:09.678Z,16.70
2016-12-17T04:52:12.455Z,16.70
2016-12-17T04:53:13.319Z,16.70
2016-12-17T04:54:12.179Z,16.70
2016-12-17T04:55:12.332Z,16.70
2016-12-17T04:56:13.497Z,16.70
2016-12-17T04:57:12.593Z,16.70
2016-12-17T04:58:13.287Z,16.70
2016-12-17T04:59:13.503Z,16.70
2016-12-17T05:00:12.193Z,16.70
2016-12-17T05:01:11.815Z,16.70
2016-12-17T05:02:13.590Z,16.70
2016-12-17T05:03:12.698Z,16.70
2016-12-17T05:04:10.788Z,16.70
2016-12-17T05:05:13.575Z,16.70
2016-12-17T05:06:11.826Z,16.70
2016-12-17T05:07:13.505Z,16.70
2016-12-17T05:08:12.947Z,16.70
2016-12-17T05:09:13.414Z,16.70
2016-12-17T05:10:12.102Z,16.70
2016-12-17T05:11:11.730Z,16.70
2016-12-17T05:12:13.440Z,16.70
2016-12-17T05:13:12.223Z,16.70
2016-12-17T05:14:12.309Z,16.70
2016-12-17T05:15:11.694Z,16.70
2016-12-17T05:16:13.410Z,16.70
2016-12-17T05:17:12.656Z,16.70
2016-12-17T05:18:13.005Z,16.70
2016-12-17T05:19:12.956Z,16.70
2016-12-17T05:20:15.217Z,16.70
2016-12-17T05:21:13.265Z,16.70
2016-12-17T05:22:13.368Z,16.70
2016-12-17T05:23:12.611Z,16.70
2016-12-17T05:24:16.012Z,16.70
2016-12-17T05:25:16.005Z,16.70
2016-12-17T05:26:14.156Z,16.70
2016-12-17T05:27:12.213Z,16.70
2016-12-17T05:28:12.709Z,16.70
2016-12-17T05:29:13.558Z,16.70
2016-12-17T05:30:12.953Z,16.70
2016-12-17T05:31:14.849Z,16.70
2016-12-17T05:32:16.400Z,16.70
2016-12-17T05:33:12.494Z,16.70
2016-12-17T05:34:12.370Z,16.70
2016-12-17T05:35:12.080Z,16.70
2016-12-17T05:36:11.654Z,16.70
2016-12-17T05:37:12.440Z,16.70
2016-12-17T05:38:12.640Z,16.70
2016-12-17T05:39:12.910Z,16.70
2016-12-17T05:40:10.105Z,16.70
2016-12-17T05:41:12.275Z,16.70
2016-12-17T05:42:12.435Z,16.70
2016-12-17T05:43:12.273Z,16.70
2016-12-17T05:44:12.145Z,16.70
2016-12-17T05:45:08.996Z,16.70
2016-12-17T05:46:12.422Z,16.70
2016-12-17T05:47:10.157Z,16.70
2016-12-17T05:48:12.396Z,16.70
2016-12-17T05:49:13.100Z,16.70
2016-12-17T05:50:12.305Z,16.70
2016-12-17T05:51:13.781Z,16.70
2016-12-17T05:52:12.692Z,16.70
2016-12-17T05:53:11.441Z,16.70
2016-12-17T05:54:12.583Z,16.70
2016-12-17T05:55:13.113Z,16.70
2016-12-17T05:56:11.490Z,16.70
2016-12-17T05:57:12.699Z,16.70
2016-12-17T05:58:10.663Z,16.70
2016-12-17T05:59:12.723Z,16.70
2016-12-17T06:00:09.744Z,16.70
2016-12-17T06:01:13.645Z,16.70
2016-12-17T06:02:12.749Z,16.70
2016-12-17T06:03:12.809Z,16.70
2016-12-17T06:04:12.805Z,16.70
2016-12-17T06:05:12.443Z,16.70
2016-12-17T06:06:10.129Z,16.70
2016-12-17T06:07:12.115Z,16.70
2016-12-17T06:08:12.243Z,16.70
2016-12-17T06:09:12.470Z,16.70
2016-12-17T06:10:12.406Z,16.70
2016-12-17T06:11:13.315Z,16.70
2016-12-17T06:12:12.620Z,16.70
2016-12-17T06:13:12.982Z,16.70
2016-12-17T06:14:12.691Z,16.70
2016-12-17T06:15:10.510Z,16.70
2016-12-17T06:16:13.993Z,16.70
2016-12-17T06:17:12.625Z,16.70
2016-12-17T06:18:12.717Z,16.70
2016-12-17T06:19:09.664Z,16.70
2016-12-17T06:20:13.438Z,16.70
2016-12-17T06:21:12.698Z,16.70
2016-12-17T06:22:13.159Z,16.70
2016-12-17T06:23:12.241Z,16.70
2016-12-17T06:24:13.193Z,16.70
2016-12-17T06:25:12.630Z,16.70
2016-12-17T06:26:08.967Z,16.70
2016-12-17T06:27:13.018Z,16.70
2016-12-17T06:28:12.376Z,16.70
2016-12-17T06:29:12.467Z,16.70
2016-12-17T06:30:10.504Z,16.70
2016-12-17T06:31:13.194Z,16.70
2016-12-17T06:32:12.431Z,16.70
2016-12-17T06:33:12.714Z,16.70
2016-12-17T06:34:12.219Z,16.70
2016-12-17T06:35:13.370Z,16.70
2016-12-17T06:36:11.951Z,16.70
2016-12-17T06:37:12.374Z,16.70
2016-12-17T06:38:12.951Z,16.70
2016-12-17T06:39:09.466Z,16.70
2016-12-17T06:40:11.539Z,16.70
2016-12-17T06:41:13.087Z,16.70
2016-12-17T06:42:12.152Z,16.70
2016-12-17T06:43:12.451Z,16.70
2016-12-17T06:44:12.772Z,16.70
2016-12-17T06:45:10.525Z,16.70
2016-12-17T06:46:13.565Z,16.70
2016-12-17T06:47:10.534Z,16.70
2016-12-17T06:48:09.765Z,16.70
2016-12-17T06:49:12.738Z,16.70
2016-12-17T06:50:13.319Z,16.70
2016-12-17T06:51:12.797Z,16.70
2016-12-17T06:52:10.197Z,16.70
2016-12-17T06:53:11.904Z,16.70
2016-12-17T06:54:10.163Z,16.70
2016-12-17T06:55:12.207Z,16.70
2016-12-17T06:56:10.955Z,16.70
2016-12-17T06:57:13.553Z,16.70
2016-12-17T06:58:12.237Z,16.70
2016-12-17T06:59:12.430Z,16.70
2016-12-17T07:00:13.601Z,16.70
2016-12-17T07:01:10.590Z,16.70
2016-12-17T07:02:10.606Z,16.70
2016-12-17T07:03:12.488Z,16.70
2016-12-17T07:04:12.732Z,16.70
2016-12-17T07:05:10.534Z,16.70
2016-12-17T07:06:11.899Z,16.70
2016-12-17T07:07:12.317Z,16.70
2016-12-17T07:08:13.287Z,16.70
2016-12-17T07:09:11.579Z,16.70
2016-12-17T07:10:12.539Z,16.70
2016-12-17T07:11:13.097Z,16.70
2016-12-17T07:12:12.174Z,16.70
2016-12-17T07:13:11.940Z,16.70
2016-12-17T07:14:12.455Z,16.70
2016-12-17T07:15:12.472Z,16.70
2016-12-17T07:16:13.232Z,16.70
2016-12-17T07:17:12.265Z,16.70
2016-12-17T07:18:12.976Z,16.70
2016-12-17T07:19:08.699Z,16.70
2016-12-17T07:20:12.217Z,16.70
2016-12-17T07:21:12.059Z,16.70
2016-12-17T07:22:12.365Z,16.70
2016-12-17T07:23:11.998Z,16.70
2016-12-17T07:24:12.122Z,16.70
2016-12-17T07:25:12.412Z,16.70
2016-12-17T07:26:12.284Z,16.70
2016-12-17T07:27:13.807Z,16.70
2016-12-17T07:28:13.613Z,16.70
2016-12-17T07:29:10.927Z,16.70
2016-12-17T07:30:08.685Z,16.70
2016-12-17T07:31:13.724Z,16.70
2016-12-17T07:32:12.480Z,16.70
2016-12-17T07:33:13.023Z,16.70
2016-12-17T07:34:12.451Z,16.70
2016-12-17T07:35:12.252Z,16.70
2016-12-17T07:36:12.734Z,16.70
2016-12-17T07:37:12.720Z,16.70
2016-12-17T07:38:12.753Z,16.70
2016-12-17T07:39:13.598Z,16.70
2016-12-17T07:40:12.933Z,16.70
2016-12-17T07:41:12.885Z,16.70
2016-12-17T07:42:09.918Z,16.70
2016-12-17T07:43:12.824Z,16.70
2016-12-17T07:44:14.724Z,16.70
2016-12-17T07:45:13.533Z,16.70
2016-12-17T07:46:13.036Z,16.70
2016-12-17T07:47:12.434Z,16.70
2016-12-17T07:48:12.830Z,16.70
2016-12-17T07:49:10.892Z,16.70
2016-12-17T07:50:12.285Z,16.70
2016-12-17T07:51:12.435Z,16.70
2016-12-17T07:52:12.845Z,16.70
2016-12-17T07:53:12.308Z,16.70
2016-12-17T07:54:12.851Z,16.70
2016-12-17T07:55:13.715Z,16.70
2016-12-17T07:56:13.642Z,16.70
2016-12-17T07:57:14.588Z,16.70
2016-12-17T07:58:12.036Z,16.70
2016-12-17T07:59:12.084Z,16.70
2016-12-17T08:00:12.323Z,16.70
2016-12-17T08:01:13.325Z,16.70
2016-12-17T08:02:12.685Z,16.70
2016-12-17T08:03:13.551Z,16.70
2016-12-17T08:04:12.346Z,16.70
2016-12-17T08:05:12.588Z,16.70
2016-12-17T08:06:12.555Z,16.70
2016-12-17T08:07:12.690Z,16.70
2016-12-17T08:08:12.480Z,16.70
2016-12-17T08:09:12.631Z,16.70
2016-12-17T08:10:12.047Z,16.70
2016-12-17T08:11:11.609Z,16.70
2016-12-17T08:12:12.088Z,16.70
2016-12-17T08:13:12.399Z,16.70
2016-12-17T08:14:08.895Z,16.70
2016-12-17T08:15:13.138Z,16.70
2016-12-17T08:16:09.970Z,16.70
2016-12-17T08:17:10.926Z,16.70
2016-12-17T08:18:10.368Z,16.70
2016-12-17T08:19:13.104Z,16.70
2016-12-17T08:20:10.007Z,16.70
2016-12-17T08:21:12.550Z,16.70
2016-12-17T08:22:12.009Z,16.70
2016-12-17T08:23:08.520Z,16.70
2016-12-17T08:24:12.596Z,16.70
2016-12-17T08:25:10.510Z,16.70
2016-12-17T08:26:11.658Z,16.70
2016-12-17T08:27:08.517Z,16.70
2016-12-17T08:28:12.574Z,16.70
2016-12-17T08:29:10.740Z,16.70
2016-12-17T08:30:10.370Z,16.70
2016-12-17T08:31:12.851Z,16.70
2016-12-17T08:32:13.269Z,16.70
2016-12-17T08:33:13.295Z,16.70
2016-12-17T08:34:14.155Z,16.70
2016-12-17T08:35:12.615Z,16.70
2016-12-17T08:36:11.495Z,16.70
2016-12-17T08:37:14.553Z,16.70
2016-12-17T08:38:13.544Z,16.70
2016-12-17T08:39:13.251Z,16.60
2016-12-17T08:40:14.424Z,16.70
2016-12-17T08:41:12.312Z,16.70
2016-12-17T08:42:10.504Z,16.70
2016-12-17T08:43:12.932Z,16.70
2016-12-17T08:44:13.581Z,16.70
2016-12-17T08:45:12.025Z,16.70
2016-12-17T08:46:12.600Z,16.70
2016-12-17T08:47:12.158Z,16.70
2016-12-17T08:48:14.156Z,16.70
2016-12-17T08:49:12.417Z,16.70
2016-12-17T08:50:13.622Z,16.70
2016-12-17T08:51:12.912Z,16.70
2016-12-17T08:52:12.657Z,16.70
2016-12-17T08:53:13.216Z,16.70
2016-12-17T08:54:12.059Z,16.70
2016-12-17T08:55:13.115Z,16.70
2016-12-17T08:56:12.674Z,16.70
2016-12-17T08:57:13.669Z,16.70
2016-12-17T08:58:09.167Z,16.70
2016-12-17T08:59:12.380Z,16.70
2016-12-17T09:00:12.647Z,16.70
2016-12-17T09:01:09.049Z,16.70
2016-12-17T09:02:14.643Z,16.70
2016-12-17T09:03:12.735Z,16.70
2016-12-17T09:04:12.863Z,16.70
2016-12-17T09:05:13.175Z,16.70
2016-12-17T09:06:12.147Z,16.70
2016-12-17T09:07:13.374Z,16.70
2016-12-17T09:08:12.367Z,16.70
2016-12-17T09:09:12.967Z,16.70
2016-12-17T09:10:15.181Z,16.70
2016-12-17T09:11:12.320Z,16.70
2016-12-17T09:12:09.919Z,16.70
2016-12-17T09:13:13.949Z,16.70
2016-12-17T09:14:12.767Z,16.70
2016-12-17T09:15:11.851Z,16.70
2016-12-17T09:16:12.016Z,16.70
2016-12-17T09:17:15.564Z,16.40
2016-12-17T09:18:12.326Z,15.10
2016-12-17T09:19:13.766Z,13.70
2016-12-17T09:20:12.677Z,12.40
2016-12-17T09:21:10.378Z,11.50
2016-12-17T09:22:12.350Z,11.00
2016-12-17T09:23:12.304Z,10.60
2016-12-17T09:24:08.396Z,10.60
2016-12-17T09:25:10.364Z,11.00
2016-12-17T09:26:12.484Z,11.50
2016-12-17T09:27:09.239Z,12.10
2016-12-17T09:28:12.385Z,12.70
2016-12-17T09:29:11.708Z,13.20
2016-12-17T09:30:12.135Z,13.60
2016-12-17T09:31:12.350Z,14.00
2016-12-17T09:32:13.831Z,14.30
2016-12-17T09:33:12.434Z,14.50
2016-12-17T09:34:14.627Z,14.70
2016-12-17T09:35:12.073Z,14.90
2016-12-17T09:36:09.664Z,15.10
2016-12-17T09:37:12.448Z,15.20
2016-12-17T09:38:14.028Z,15.30
2016-12-17T09:39:11.909Z,15.40
2016-12-17T09:40:09.720Z,15.50
2016-12-17T09:41:12.855Z,15.60
2016-12-17T09:42:12.441Z,15.60
2016-12-17T09:43:12.066Z,15.60
2016-12-17T09:44:12.352Z,15.70
2016-12-17T09:45:15.001Z,15.70
2016-12-17T09:46:12.777Z,15.80
2016-12-17T09:47:12.196Z,15.80
2016-12-17T09:48:12.374Z,15.80
2016-12-17T09:49:12.809Z,15.80
2016-12-17T09:50:13.897Z,15.80
2016-12-17T09:51:12.392Z,15.90
2016-12-17T09:52:12.169Z,15.90
2016-12-17T09:53:12.313Z,15.90
2016-12-17T09:54:12.813Z,15.90
2016-12-17T09:55:12.468Z,15.90
2016-12-17T09:56:13.907Z,15.90
2016-12-17T09:57:10.115Z,15.90
2016-12-17T09:58:11.929Z,16.00
2016-12-17T09:59:12.452Z,16.00
2016-12-17T10:00:12.112Z,16.00
2016-12-17T10:01:10.103Z,16.00
2016-12-17T10:02:12.408Z,16.00
2016-12-17T10:03:13.261Z,16.00
2016-12-17T10:04:13.051Z,16.00
2016-12-17T10:05:13.461Z,16.00
2016-12-17T10:06:12.984Z,16.00
2016-12-17T10:07:12.632Z,16.00
2016-12-17T10:08:08.985Z,16.00
2016-12-17T10:09:12.200Z,16.00
2016-12-17T10:10:12.907Z,16.10
2016-12-17T10:11:12.443Z,16.00
2016-12-17T10:12:10.589Z,16.10
2016-12-17T10:13:13.980Z,16.10
2016-12-17T10:14:13.947Z,16.10
2016-12-17T10:15:12.547Z,16.10
2016-12-17T10:16:09.692Z,16.10
2016-12-17T10:17:13.025Z,16.00
2016-12-17T10:18:12.871Z,16.10
2016-12-17T10:19:13.768Z,16.10
2016-12-17T10:20:10.575Z,16.10
2016-12-17T10:21:12.867Z,16.10
2016-12-17T10:22:12.295Z,16.10
2016-12-17T10:23:14.444Z,16.10
2016-12-17T10:24:12.717Z,16.10
2016-12-17T10:25:14.066Z,16.10
2016-12-17T10:26:12.300Z,16.10
2016-12-17T10:27:10.746Z,16.10
2016-12-17T10:28:12.162Z,16.10
2016-12-17T10:29:08.576Z,16.10
2016-12-17T10:30:10.484Z,16.10
2016-12-17T10:31:10.498Z,16.10
2016-12-17T10:32:12.410Z,16.10
2016-12-17T10:33:12.389Z,16.10
2016-12-17T10:34:12.627Z,16.10
2016-12-17T10:35:13.376Z,16.10
2016-12-17T10:36:11.890Z,16.10
2016-12-17T10:37:11.293Z,16.10
2016-12-17T10:38:12.379Z,16.10
2016-12-17T10:39:16.470Z,16.10
2016-12-17T10:40:11.857Z,16.10
2016-12-17T10:41:12.529Z,16.10
2016-12-17T10:42:14.649Z,16.10
2016-12-17T10:43:13.513Z,16.10
2016-12-17T10:44:13.384Z,16.10
2016-12-17T10:45:12.352Z,16.10
2016-12-17T10:46:12.467Z,16.10
2016-12-17T10:47:13.370Z,16.10
2016-12-17T10:48:12.458Z,16.10
2016-12-17T10:49:13.263Z,16.10
2016-12-17T10:50:11.708Z,16.10
2016-12-17T10:51:12.044Z,16.10
2016-12-17T10:52:13.017Z,16.20
2016-12-17T10:53:10.404Z,16.20
2016-12-17T10:54:12.578Z,16.10
2016-12-17T10:55:13.232Z,16.20
2016-12-17T10:56:12.659Z,16.10
2016-12-17T10:57:12.477Z,16.10
2016-12-17T10:58:10.679Z,16.20
2016-12-17T10:59:10.338Z,16.20
2016-12-17T11:00:09.308Z,16.10
2016-12-17T11:01:09.166Z,16.10
2016-12-17T11:02:11.415Z,16.10
2016-12-17T11:03:14.698Z,16.10
2016-12-17T11:04:12.176Z,16.20
2016-12-17T11:05:12.546Z,16.10
2016-12-17T11:06:12.206Z,16.10
2016-12-17T11:07:11.770Z,16.10
2016-12-17T11:08:12.479Z,16.20
2016-12-17T11:09:13.295Z,16.20
2016-12-17T11:10:14.179Z,16.10
2016-12-17T11:11:10.154Z,16.20
2016-12-17T11:12:13.224Z,16.20
2016-12-17T11:13:14.081Z,16.20
2016-12-17T11:14:12.303Z,16.20
2016-12-17T11:15:13.482Z,16.20
2016-12-17T11:16:12.160Z,16.20
2016-12-17T11:17:13.961Z,16.20
2016-12-17T11:18:12.990Z,16.20
2016-12-17T11:19:12.365Z,16.20
2016-12-17T11:20:12.844Z,16.20
2016-12-17T11:21:14.171Z,16.20
2016-12-17T11:22:13.199Z,16.20
2016-12-17T11:23:14.122Z,16.20
2016-12-17T11:24:10.107Z,16.20
2016-12-17T11:25:12.642Z,16.20
2016-12-17T11:26:10.550Z,16.20
2016-12-17T11:27:11.846Z,16.20
2016-12-17T11:28:11.869Z,16.20
2016-12-17T11:29:14.178Z,16.20
2016-12-17T11:30:14.058Z,16.20
2016-12-17T11:31:12.227Z,16.20
2016-12-17T11:32:12.815Z,16.20
2016-12-17T11:33:13.054Z,16.20
2016-12-17T11:34:10.271Z,16.20
2016-12-17T11:35:08.576Z,16.20
2016-12-17T11:36:11.101Z,16.20
2016-12-17T11:37:08.597Z,16.20
2016-12-17T11:38:13.134Z,16.20
2016-12-17T11:39:09.205Z,16.20
2016-12-17T11:40:12.419Z,16.20
2016-12-17T11:41:13.332Z,16.20
2016-12-17T11:42:13.174Z,16.20
2016-12-17T11:43:13.185Z,16.20
2016-12-17T11:44:13.963Z,16.20
2016-12-17T11:45:13.138Z,16.20
2016-12-17T11:46:10.348Z,16.20
2016-12-17T11:47:10.181Z,16.20
2016-12-17T11:48:12.710Z,16.20
2016-12-17T11:49:12.887Z,16.20
2016-12-17T11:50:13.494Z,16.20
2016-12-17T11:51:12.706Z,16.20
2016-12-17T11:52:09.891Z,16.20
2016-12-17T11:53:12.649Z,16.20
2016-12-17T11:54:14.478Z,16.20
2016-12-17T11:55:11.639Z,16.20
2016-12-17T11:56:08.936Z,16.20
2016-12-17T11:57:13.403Z,16.20
2016-12-17T11:58:12.358Z,16.20
2016-12-17T11:59:09.182Z,16.20
2016-12-17T12:00:12.143Z,16.20
2016-12-17T12:01:11.484Z,16.20
2016-12-17T12:02:14.646Z,16.20
2016-12-17T12:03:09.100Z,16.20
2016-12-17T12:04:12.151Z,16.20
2016-12-17T12:05:12.087Z,16.20
2016-12-17T12:06:13.417Z,16.20
2016-12-17T12:07:12.629Z,16.20
2016-12-17T12:08:13.404Z,16.20
2016-12-17T12:09:13.546Z,16.20
2016-12-17T12:10:12.383Z,16.20
2016-12-17T12:11:12.337Z,16.20
2016-12-17T12:12:12.523Z,16.20
2016-12-17T12:13:12.921Z,16.20
2016-12-17T12:14:12.018Z,16.20
2016-12-17T12:15:13.569Z,16.20
2016-12-17T12:16:10.092Z,16.20
2016-12-17T12:17:12.675Z,16.20
2016-12-17T12:18:12.866Z,16.20
2016-12-17T12:19:13.370Z,16.20
2016-12-17T12:20:13.254Z,16.30
2016-12-17T12:21:10.756Z,16.30
2016-12-17T12:22:12.171Z,16.20
2016-12-17T12:23:14.395Z,16.20
2016-12-17T12:24:12.528Z,16.20
2016-12-17T12:25:10.635Z,16.20
2016-12-17T12:26:12.212Z,16.20
2016-12-17T12:27:12.331Z,16.20
2016-12-17T12:28:12.215Z,16.20
2016-12-17T12:29:12.368Z,16.30
2016-12-17T12:30:12.973Z,16.30
2016-12-17T12:31:13.421Z,16.30
2016-12-17T12:32:12.519Z,16.30
2016-12-17T12:33:12.239Z,16.20
2016-12-17T12:34:10.316Z,16.30
2016-12-17T12:35:12.413Z,16.30
2016-12-17T12:36:12.446Z,16.20
2016-12-17T12:37:11.887Z,16.30
2016-12-17T12:38:15.201Z,16.30
2016-12-17T12:39:12.209Z,16.30
2016-12-17T12:40:14.386Z,16.30
2016-12-17T12:41:12.203Z,16.20
2016-12-17T12:42:13.455Z,16.30
2016-12-17T12:43:09.459Z,16.30
2016-12-17T12:44:12.455Z,16.30
2016-12-17T12:45:09.830Z,16.20
2016-12-17T12:46:12.361Z,16.30
2016-12-17T12:47:13.013Z,16.30
2016-12-17T12:48:08.526Z,16.30
2016-12-17T12:49:12.394Z,16.30
2016-12-17T12:50:12.262Z,16.30
2016-12-17T12:51:11.894Z,16.30
2016-12-17T12:52:11.463Z,16.30